sensor_id;sensor_type;location;lat;lon;timestamp;pressure;altitude;pressure_sealevel;temperature;humidity
25664;BME280;13522;50.018;20.014;2023-04-09T00:01:49;99510.52;;;5.02;100.00
25664;BME280;13522;50.018;20.014;2023-04-09T00:05:03;99517.25;;;4.92;100.00
25664;BME280;13522;50.018;20.014;2023-04-09T00:08:16;99523.13;;;4.82;100.00
25664;BME280;13522;50.018;20.014;2023-04-09T00:11:28;99523.02;;;4.69;100.00
25664;BME280;13522;50.018;20.014;2023-04-09T00:14:41;99526.81;;;4.64;100.00
25664;BME280;13522;50.018;20.014;2023-04-09T00:17:53;99521.74;;;4.61;100.00
25664;BME280;13522;50.018;20.014;2023-04-09T00:21:05;99519.68;;;4.66;100.00
25664;BME280;13522;50.018;20.014;2023-04-09T00:24:17;99518.67;;;4.68;100.00
25664;BME280;13522;50.018;20.014;2023-04-09T00:27:29;99524.94;;;4.66;100.00
25664;BME280;13522;50.018;20.014;2023-04-09T00:30:41;99520.54;;;4.66;100.00
25664;BME280;13522;50.018;20.014;2023-04-09T00:33:53;99530.20;;;4.66;100.00
25664;BME280;13522;50.018;20.014;2023-04-09T00:37:06;99524.78;;;4.69;100.00
25664;BME280;13522;50.018;20.014;2023-04-09T00:40:18;99521.14;;;4.71;100.00
25664;BME280;13522;50.018;20.014;2023-04-09T00:43:30;99521.80;;;4.75;100.00
25664;BME280;13522;50.018;20.014;2023-04-09T00:46:42;99514.58;;;4.78;100.00
25664;BME280;13522;50.018;20.014;2023-04-09T00:49:54;99512.03;;;4.77;100.00
25664;BME280;13522;50.018;20.014;2023-04-09T00:53:06;99506.78;;;4.77;100.00
25664;BME280;13522;50.018;20.014;2023-04-09T00:56:22;99501.52;;;4.77;100.00
25664;BME280;13522;50.018;20.014;2023-04-09T00:59:34;99506.88;;;4.75;100.00
25664;BME280;13522;50.018;20.014;2023-04-09T01:02:46;99505.66;;;4.81;100.00
25664;BME280;13522;50.018;20.014;2023-04-09T01:06:04;99509.81;;;4.85;100.00
25664;BME280;13522;50.018;20.014;2023-04-09T01:09:23;99508.86;;;4.86;100.00
25664;BME280;13522;50.018;20.014;2023-04-09T01:12:42;99508.86;;;4.86;100.00
25664;BME280;13522;50.018;20.014;2023-04-09T01:15:58;99489.27;;;4.76;100.00
25664;BME280;13522;50.018;20.014;2023-04-09T01:19:28;99502.94;;;4.82;100.00
25664;BME280;13522;50.018;20.014;2023-04-09T01:22:44;99503.95;;;4.80;100.00
25664;BME280;13522;50.018;20.014;2023-04-09T01:26:06;99504.14;;;4.77;100.00
25664;BME280;13522;50.018;20.014;2023-04-09T01:29:23;99493.72;;;4.75;100.00
25664;BME280;13522;50.018;20.014;2023-04-09T01:32:39;99501.67;;;4.74;100.00
25664;BME280;13522;50.018;20.014;2023-04-09T01:35:52;99494.73;;;4.73;100.00
25664;BME280;13522;50.018;20.014;2023-04-09T01:39:06;99485.42;;;4.67;100.00
25664;BME280;13522;50.018;20.014;2023-04-09T01:42:20;99497.01;;;4.79;100.00
25664;BME280;13522;50.018;20.014;2023-04-09T01:45:33;99500.50;;;4.79;100.00
25664;BME280;13522;50.018;20.014;2023-04-09T01:48:46;99507.63;;;4.77;100.00
25664;BME280;13522;50.018;20.014;2023-04-09T01:51:59;99510.52;;;4.73;100.00
25664;BME280;13522;50.018;20.014;2023-04-09T01:55:11;99513.41;;;4.68;100.00
25664;BME280;13522;50.018;20.014;2023-04-09T01:58:24;99515.27;;;4.66;100.00
25664;BME280;13522;50.018;20.014;2023-04-09T02:01:43;99514.61;;;4.63;100.00
25664;BME280;13522;50.018;20.014;2023-04-09T02:04:57;99518.51;;;4.56;100.00
25664;BME280;13522;50.018;20.014;2023-04-09T02:08:13;99516.06;;;4.53;100.00
25664;BME280;13522;50.018;20.014;2023-04-09T02:11:29;99520.56;;;4.51;100.00
25664;BME280;13522;50.018;20.014;2023-04-09T02:14:46;99522.63;;;4.46;100.00
25664;BME280;13522;50.018;20.014;2023-04-09T02:18:00;99524.30;;;4.47;100.00
25664;BME280;13522;50.018;20.014;2023-04-09T02:21:13;99527.50;;;4.52;100.00
25664;BME280;13522;50.018;20.014;2023-04-09T02:24:25;99524.72;;;4.55;100.00
25664;BME280;13522;50.018;20.014;2023-04-09T02:27:37;99527.92;;;4.60;100.00
25664;BME280;13522;50.018;20.014;2023-04-09T02:30:49;99527.00;;;4.61;100.00
25664;BME280;13522;50.018;20.014;2023-04-09T02:34:01;99520.22;;;4.57;100.00
25664;BME280;13522;50.018;20.014;2023-04-09T02:37:13;99519.37;;;4.56;100.00
25664;BME280;13522;50.018;20.014;2023-04-09T02:40:25;99518.70;;;4.53;100.00
25664;BME280;13522;50.018;20.014;2023-04-09T02:43:38;99519.45;;;4.55;100.00
25664;BME280;13522;50.018;20.014;2023-04-09T02:46:51;99513.25;;;4.56;100.00
25664;BME280;13522;50.018;20.014;2023-04-09T02:50:03;99513.09;;;4.59;100.00
25664;BME280;13522;50.018;20.014;2023-04-09T02:53:18;99513.00;;;4.60;100.00
25664;BME280;13522;50.018;20.014;2023-04-09T02:56:31;99516.29;;;4.64;100.00
25664;BME280;13522;50.018;20.014;2023-04-09T02:59:43;99518.86;;;4.65;100.00
25664;BME280;13522;50.018;20.014;2023-04-09T03:02:55;99516.29;;;4.64;100.00
25664;BME280;13522;50.018;20.014;2023-04-09T03:06:08;99520.03;;;4.60;100.00
25664;BME280;13522;50.018;20.014;2023-04-09T03:09:20;99515.47;;;4.63;100.00
25664;BME280;13522;50.018;20.014;2023-04-09T03:12:32;99520.54;;;4.66;100.00
25664;BME280;13522;50.018;20.014;2023-04-09T03:15:44;99512.39;;;4.71;100.00
25664;BME280;13522;50.018;20.014;2023-04-09T03:18:58;99514.27;;;4.69;100.00
25664;BME280;13522;50.018;20.014;2023-04-09T03:22:10;99523.27;;;4.65;100.00
25664;BME280;13522;50.018;20.014;2023-04-09T03:25:23;99514.27;;;4.69;100.00
25664;BME280;13522;50.018;20.014;2023-04-09T03:28:36;99514.07;;;4.72;100.00
25664;BME280;13522;50.018;20.014;2023-04-09T03:31:48;99517.30;;;4.77;100.00
25664;BME280;13522;50.018;20.014;2023-04-09T03:35:01;99510.27;;;4.77;100.00
25664;BME280;13522;50.018;20.014;2023-04-09T03:38:14;99518.16;;;4.77;100.00
25664;BME280;13522;50.018;20.014;2023-04-09T03:41:26;99515.42;;;4.79;100.00
25664;BME280;13522;50.018;20.014;2023-04-09T03:44:40;99511.02;;;4.79;100.00
25664;BME280;13522;50.018;20.014;2023-04-09T03:47:53;99506.52;;;4.81;100.00
25664;BME280;13522;50.018;20.014;2023-04-09T03:51:07;99508.95;;;4.84;100.00
25664;BME280;13522;50.018;20.014;2023-04-09T03:54:23;99513.27;;;4.85;100.00
25664;BME280;13522;50.018;20.014;2023-04-09T03:57:38;99515.08;;;4.85;100.00
25664;BME280;13522;50.018;20.014;2023-04-09T04:00:52;99511.48;;;4.86;100.00
25664;BME280;13522;50.018;20.014;2023-04-09T04:04:07;99510.57;;;4.87;100.00
25664;BME280;13522;50.018;20.014;2023-04-09T04:07:21;99519.23;;;4.89;100.00
25664;BME280;13522;50.018;20.014;2023-04-09T04:10:35;99516.50;;;4.90;100.00
25664;BME280;13522;50.018;20.014;2023-04-09T04:13:48;99515.48;;;4.93;100.00
25664;BME280;13522;50.018;20.014;2023-04-09T04:17:01;99524.39;;;4.90;100.00
25664;BME280;13522;50.018;20.014;2023-04-09T04:20:13;99524.30;;;4.92;100.00
25664;BME280;13522;50.018;20.014;2023-04-09T04:23:31;99519.89;;;4.92;100.00
25664;BME280;13522;50.018;20.014;2023-04-09T04:26:46;99525.05;;;4.94;100.00
25664;BME280;13522;50.018;20.014;2023-04-09T04:29:59;99517.91;;;4.96;100.00
25664;BME280;13522;50.018;20.014;2023-04-09T04:33:13;99525.65;;;4.99;100.00
25664;BME280;13522;50.018;20.014;2023-04-09T04:36:27;99526.41;;;5.01;100.00
25664;BME280;13522;50.018;20.014;2023-04-09T04:39:40;99524.34;;;5.06;100.00
25664;BME280;13522;50.018;20.014;2023-04-09T04:42:54;99523.31;;;5.08;100.00
25664;BME280;13522;50.018;20.014;2023-04-09T04:46:07;99528.38;;;5.11;100.00
25664;BME280;13522;50.018;20.014;2023-04-09T04:49:19;99532.83;;;5.11;100.00
25664;BME280;13522;50.018;20.014;2023-04-09T04:52:31;99535.36;;;5.12;100.00
25664;BME280;13522;50.018;20.014;2023-04-09T04:55:43;99539.41;;;5.18;100.00
25664;BME280;13522;50.018;20.014;2023-04-09T04:58:57;99536.59;;;5.21;100.00
25664;BME280;13522;50.018;20.014;2023-04-09T05:02:12;99539.91;;;5.24;100.00
25664;BME280;13522;50.018;20.014;2023-04-09T05:05:30;99535.47;;;5.25;100.00
25664;BME280;13522;50.018;20.014;2023-04-09T05:08:42;99542.44;;;5.26;100.00
25664;BME280;13522;50.018;20.014;2023-04-09T05:11:55;99544.98;;;5.27;100.00
25664;BME280;13522;50.018;20.014;2023-04-09T05:15:09;99536.98;;;5.29;100.00
25664;BME280;13522;50.018;20.014;2023-04-09T05:18:21;99543.76;;;5.33;100.00
25664;BME280;13522;50.018;20.014;2023-04-09T05:21:33;99542.25;;;5.29;100.00
25664;BME280;13522;50.018;20.014;2023-04-09T05:24:46;99540.20;;;5.34;100.00
25664;BME280;13522;50.018;20.014;2023-04-09T05:27:59;99539.55;;;5.31;100.00
25664;BME280;13522;50.018;20.014;2023-04-09T05:31:11;99546.59;;;5.30;100.00
25664;BME280;13522;50.018;20.014;2023-04-09T05:34:26;99551.09;;;5.28;100.00
25664;BME280;13522;50.018;20.014;2023-04-09T05:37:38;99546.00;;;5.25;100.00
25664;BME280;13522;50.018;20.014;2023-04-09T05:40:52;99554.66;;;5.27;100.00
25664;BME280;13522;50.018;20.014;2023-04-09T05:44:04;99556.00;;;5.34;100.00
25664;BME280;13522;50.018;20.014;2023-04-09T05:47:17;99559.20;;;5.39;100.00
25664;BME280;13522;50.018;20.014;2023-04-09T05:50:31;99560.05;;;5.40;100.00
25664;BME280;13522;50.018;20.014;2023-04-09T05:53:46;99562.42;;;5.44;100.00
25664;BME280;13522;50.018;20.014;2023-04-09T05:56:59;99563.28;;;5.45;100.00
25664;BME280;13522;50.018;20.014;2023-04-09T06:00:14;99566.27;;;5.53;100.00
25664;BME280;13522;50.018;20.014;2023-04-09T06:03:27;99560.09;;;5.68;100.00
25664;BME280;13522;50.018;20.014;2023-04-09T06:06:40;99565.44;;;5.80;100.00
25664;BME280;13522;50.018;20.014;2023-04-09T06:09:52;99558.53;;;5.93;100.00
25664;BME280;13522;50.018;20.014;2023-04-09T06:13:05;99564.53;;;6.24;100.00
25664;BME280;13522;50.018;20.014;2023-04-09T06:16:17;99572.43;;;6.38;100.00
25664;BME280;13522;50.018;20.014;2023-04-09T06:19:30;99562.80;;;6.37;100.00
25664;BME280;13522;50.018;20.014;2023-04-09T06:22:42;99562.31;;;6.44;100.00
25664;BME280;13522;50.018;20.014;2023-04-09T06:25:54;99567.02;;;6.53;100.00
25664;BME280;13522;50.018;20.014;2023-04-09T06:29:06;99569.27;;;6.59;100.00
25664;BME280;13522;50.018;20.014;2023-04-09T06:32:18;99568.41;;;6.59;100.00
25664;BME280;13522;50.018;20.014;2023-04-09T06:35:30;99580.92;;;6.69;100.00
25664;BME280;13522;50.018;20.014;2023-04-09T06:38:43;99572.45;;;6.91;100.00
25664;BME280;13522;50.018;20.014;2023-04-09T06:41:55;99574.58;;;6.98;100.00
25664;BME280;13522;50.018;20.014;2023-04-09T06:45:12;99567.42;;;7.13;100.00
25664;BME280;13522;50.018;20.014;2023-04-09T06:48:24;99571.83;;;7.00;100.00
25664;BME280;13522;50.018;20.014;2023-04-09T06:51:36;99581.47;;;7.01;100.00
25664;BME280;13522;50.018;20.014;2023-04-09T06:54:48;99577.86;;;7.02;100.00
25664;BME280;13522;50.018;20.014;2023-04-09T06:58:00;99575.45;;;7.12;100.00
25664;BME280;13522;50.018;20.014;2023-04-09T07:01:12;99582.05;;;7.31;100.00
25664;BME280;13522;50.018;20.014;2023-04-09T07:04:25;99580.48;;;7.41;100.00
25664;BME280;13522;50.018;20.014;2023-04-09T07:07:37;99587.70;;;7.52;100.00
25664;BME280;13522;50.018;20.014;2023-04-09T07:10:50;99580.11;;;7.72;100.00
25664;BME280;13522;50.018;20.014;2023-04-09T07:14:02;99570.02;;;8.03;100.00
25664;BME280;13522;50.018;20.014;2023-04-09T07:17:14;99574.22;;;8.43;100.00
25664;BME280;13522;50.018;20.014;2023-04-09T07:20:26;99573.81;;;8.96;100.00
25664;BME280;13522;50.018;20.014;2023-04-09T07:23:39;99570.92;;;9.23;99.75
25664;BME280;13522;50.018;20.014;2023-04-09T07:26:51;99568.28;;;9.91;98.57
25664;BME280;13522;50.018;20.014;2023-04-09T07:30:04;99571.50;;;10.72;92.79
25664;BME280;13522;50.018;20.014;2023-04-09T07:33:17;99559.85;;;11.26;89.25
25664;BME280;13522;50.018;20.014;2023-04-09T07:36:31;99556.27;;;11.99;86.60
25664;BME280;13522;50.018;20.014;2023-04-09T07:39:43;99555.27;;;12.30;85.77
25664;BME280;13522;50.018;20.014;2023-04-09T07:42:56;99551.78;;;12.88;82.24
25664;BME280;13522;50.018;20.014;2023-04-09T07:46:08;99558.64;;;12.32;81.58
25664;BME280;13522;50.018;20.014;2023-04-09T07:49:20;99563.80;;;12.24;82.41
25664;BME280;13522;50.018;20.014;2023-04-09T07:52:32;99561.45;;;12.89;81.45
25664;BME280;13522;50.018;20.014;2023-04-09T07:55:44;99553.09;;;13.32;77.87
25664;BME280;13522;50.018;20.014;2023-04-09T07:58:56;99554.33;;;13.66;76.75
25664;BME280;13522;50.018;20.014;2023-04-09T08:02:10;99553.52;;;13.18;77.10
25664;BME280;13522;50.018;20.014;2023-04-09T08:05:23;99551.38;;;13.02;78.89
25664;BME280;13522;50.018;20.014;2023-04-09T08:08:35;99552.33;;;13.78;76.33
25664;BME280;13522;50.018;20.014;2023-04-09T08:11:48;99552.43;;;14.32;73.82
25664;BME280;13522;50.018;20.014;2023-04-09T08:15:00;99560.07;;;14.18;73.37
25664;BME280;13522;50.018;20.014;2023-04-09T08:18:16;99561.88;;;13.71;75.50
25664;BME280;13522;50.018;20.014;2023-04-09T08:21:28;99558.64;;;14.23;75.03
25664;BME280;13522;50.018;20.014;2023-04-09T08:24:40;99547.75;;;14.89;72.69
25664;BME280;13522;50.018;20.014;2023-04-09T08:27:52;99548.44;;;14.91;72.21
25664;BME280;13522;50.018;20.014;2023-04-09T08:31:05;99545.84;;;15.34;69.67
25664;BME280;13522;50.018;20.014;2023-04-09T08:34:17;99545.70;;;15.79;68.32
25664;BME280;13522;50.018;20.014;2023-04-09T08:37:30;99544.46;;;15.30;68.13
25664;BME280;13522;50.018;20.014;2023-04-09T08:40:42;99543.88;;;14.29;71.11
25664;BME280;13522;50.018;20.014;2023-04-09T08:43:55;99554.14;;;14.24;71.49
25664;BME280;13522;50.018;20.014;2023-04-09T08:47:09;99556.78;;;13.87;72.55
25664;BME280;13522;50.018;20.014;2023-04-09T08:50:22;99561.38;;;13.48;74.32
25664;BME280;13522;50.018;20.014;2023-04-09T08:53:35;99562.36;;;13.28;77.23
25664;BME280;13522;50.018;20.014;2023-04-09T08:56:48;99554.34;;;13.38;77.11
25664;BME280;13522;50.018;20.014;2023-04-09T09:00:01;99559.41;;;13.22;75.98
25664;BME280;13522;50.018;20.014;2023-04-09T09:03:14;99559.37;;;12.83;77.93
25664;BME280;13522;50.018;20.014;2023-04-09T09:06:27;99562.53;;;12.68;79.56
25664;BME280;13522;50.018;20.014;2023-04-09T09:18:42;99563.59;;;12.06;80.40
25664;BME280;13522;50.018;20.014;2023-04-09T09:21:56;99565.19;;;12.58;79.31
25664;BME280;13522;50.018;20.014;2023-04-09T09:25:13;99556.59;;;13.23;76.82
25664;BME280;13522;50.018;20.014;2023-04-09T09:28:29;99558.55;;;13.12;76.44
25664;BME280;13522;50.018;20.014;2023-04-09T09:31:49;99554.63;;;13.16;71.57
25664;BME280;13522;50.018;20.014;2023-04-09T09:35:04;99553.38;;;14.04;70.46
25664;BME280;13522;50.018;20.014;2023-04-09T09:38:20;99565.22;;;13.92;69.37
25664;BME280;13522;50.018;20.014;2023-04-09T09:41:33;99551.77;;;13.65;70.36
25664;BME280;13522;50.018;20.014;2023-04-09T09:44:46;99557.17;;;13.27;74.74
25664;BME280;13522;50.018;20.014;2023-04-09T09:47:58;99555.63;;;13.05;74.60
25664;BME280;13522;50.018;20.014;2023-04-09T09:51:12;99551.27;;;13.04;75.32
25664;BME280;13522;50.018;20.014;2023-04-09T09:54:26;99547.47;;;13.26;73.09
25664;BME280;13522;50.018;20.014;2023-04-09T09:57:43;99542.54;;;13.50;71.42
25664;BME280;13522;50.018;20.014;2023-04-09T10:00:56;99538.86;;;13.70;74.00
25664;BME280;13522;50.018;20.014;2023-04-09T10:07:09;99536.88;;;13.72;72.13
25664;BME280;13522;50.018;20.014;2023-04-09T10:10:22;99543.23;;;13.52;74.01
25664;BME280;13522;50.018;20.014;2023-04-09T10:13:36;99543.93;;;12.96;77.13
25664;BME280;13522;50.018;20.014;2023-04-09T10:16:51;99542.52;;;12.92;77.75
25664;BME280;13522;50.018;20.014;2023-04-09T10:29:08;99533.52;;;12.84;77.47
25664;BME280;13522;50.018;20.014;2023-04-09T10:32:23;99537.74;;;12.77;78.67
25664;BME280;13522;50.018;20.014;2023-04-09T10:38:37;99535.30;;;12.55;80.62
25664;BME280;13522;50.018;20.014;2023-04-09T10:41:54;99536.17;;;12.15;79.25
25664;BME280;13522;50.018;20.014;2023-04-09T10:45:09;99534.22;;;12.17;82.09
25664;BME280;13522;50.018;20.014;2023-04-09T10:48:27;99531.31;;;11.90;80.46
25664;BME280;13522;50.018;20.014;2023-04-09T10:54:45;99542.88;;;11.80;82.79
25664;BME280;13522;50.018;20.014;2023-04-09T10:58:04;99538.92;;;11.74;84.35
25664;BME280;13522;50.018;20.014;2023-04-09T11:01:23;99531.52;;;11.78;84.40
25664;BME280;13522;50.018;20.014;2023-04-09T11:04:39;99528.33;;;11.84;83.33
25664;BME280;13522;50.018;20.014;2023-04-09T11:08:00;99535.25;;;11.96;81.90
25664;BME280;13522;50.018;20.014;2023-04-09T11:11:17;99531.34;;;12.00;83.71
25664;BME280;13522;50.018;20.014;2023-04-09T11:14:29;99521.30;;;12.13;83.24
25664;BME280;13522;50.018;20.014;2023-04-09T11:26:42;99525.84;;;12.22;80.60
25664;BME280;13522;50.018;20.014;2023-04-09T11:51:37;99519.93;;;12.77;76.52
25664;BME280;13522;50.018;20.014;2023-04-09T12:00:55;99533.75;;;12.52;78.15
25664;BME280;13522;50.018;20.014;2023-04-09T12:04:09;99524.23;;;12.50;79.10
25664;BME280;13522;50.018;20.014;2023-04-09T12:07:24;99532.78;;;12.53;78.91
25664;BME280;13522;50.018;20.014;2023-04-09T12:10:43;99530.38;;;12.50;79.47
25664;BME280;13522;50.018;20.014;2023-04-09T12:14:01;99529.42;;;12.51;79.02
25664;BME280;13522;50.018;20.014;2023-04-09T12:17:14;99533.75;;;12.52;79.37
25664;BME280;13522;50.018;20.014;2023-04-09T12:20:33;99536.25;;;12.44;79.31
25664;BME280;13522;50.018;20.014;2023-04-09T12:23:47;99526.90;;;12.50;79.34
25664;BME280;13522;50.018;20.014;2023-04-09T12:26:59;99525.86;;;12.32;78.54
25664;BME280;13522;50.018;20.014;2023-04-09T12:30:12;99531.84;;;12.24;77.97
25664;BME280;13522;50.018;20.014;2023-04-09T12:33:24;99523.84;;;12.24;80.32
25664;BME280;13522;50.018;20.014;2023-04-09T12:36:38;99533.71;;;12.33;79.48
25664;BME280;13522;50.018;20.014;2023-04-09T12:39:50;99527.28;;;12.36;79.04
25664;BME280;13522;50.018;20.014;2023-04-09T12:43:02;99526.09;;;12.19;78.30
25664;BME280;13522;50.018;20.014;2023-04-09T12:46:16;99519.63;;;12.12;77.68
25664;BME280;13522;50.018;20.014;2023-04-09T12:49:30;99527.80;;;12.20;77.18
25664;BME280;13522;50.018;20.014;2023-04-09T12:52:42;99519.91;;;12.18;78.37
25664;BME280;13522;50.018;20.014;2023-04-09T12:55:54;99522.47;;;12.20;78.62
25664;BME280;13522;50.018;20.014;2023-04-09T12:59:07;99518.95;;;12.19;79.38
25664;BME280;13522;50.018;20.014;2023-04-09T13:02:20;99526.66;;;12.23;77.61
25664;BME280;13522;50.018;20.014;2023-04-09T13:05:32;99523.73;;;12.26;78.73
25664;BME280;13522;50.018;20.014;2023-04-09T13:08:44;99516.73;;;12.34;78.30
25664;BME280;13522;50.018;20.014;2023-04-09T13:11:56;99518.83;;;12.31;77.41
25664;BME280;13522;50.018;20.014;2023-04-09T13:15:09;99514.68;;;12.47;79.24
25664;BME280;13522;50.018;20.014;2023-04-09T13:18:22;99515.86;;;12.73;75.45
25664;BME280;13522;50.018;20.014;2023-04-09T13:21:34;99508.01;;;12.81;72.90
25664;BME280;13522;50.018;20.014;2023-04-09T13:24:46;99515.56;;;12.95;69.52
25664;BME280;13522;50.018;20.014;2023-04-09T13:27:58;99511.69;;;13.19;71.29
25664;BME280;13522;50.018;20.014;2023-04-09T13:31:11;99506.55;;;13.63;70.05
25664;BME280;13522;50.018;20.014;2023-04-09T13:34:23;99508.94;;;13.57;69.40
25664;BME280;13522;50.018;20.014;2023-04-09T13:37:36;99507.55;;;13.62;68.36
25664;BME280;13522;50.018;20.014;2023-04-09T13:40:48;99503.45;;;13.68;69.36
25664;BME280;13522;50.018;20.014;2023-04-09T13:44:00;99501.23;;;13.54;71.05
25664;BME280;13522;50.018;20.014;2023-04-09T13:47:13;99510.25;;;13.34;69.19
25664;BME280;13522;50.018;20.014;2023-04-09T13:50:26;99506.88;;;13.51;71.25
25664;BME280;13522;50.018;20.014;2023-04-09T13:53:39;99504.48;;;13.48;68.59
25664;BME280;13522;50.018;20.014;2023-04-09T13:56:51;99498.44;;;13.46;61.56
25664;BME280;13522;50.018;20.014;2023-04-09T14:00:04;99504.60;;;13.56;61.95
25664;BME280;13522;50.018;20.014;2023-04-09T14:03:18;99501.44;;;13.79;66.15
25664;BME280;13522;50.018;20.014;2023-04-09T14:06:31;99493.28;;;13.81;62.45
25664;BME280;13522;50.018;20.014;2023-04-09T14:09:42;99494.98;;;13.82;62.47
25664;BME280;13522;50.018;20.014;2023-04-09T14:12:55;99494.63;;;13.94;62.87
25664;BME280;13522;50.018;20.014;2023-04-09T14:16:10;99495.84;;;13.73;64.00
25664;BME280;13522;50.018;20.014;2023-04-09T14:19:22;99494.80;;;13.47;62.50
25664;BME280;13522;50.018;20.014;2023-04-09T14:22:34;99487.07;;;13.44;64.33
25664;BME280;13522;50.018;20.014;2023-04-09T14:25:48;99490.61;;;13.35;64.76
25664;BME280;13522;50.018;20.014;2023-04-09T14:29:00;99481.88;;;13.42;65.37
25664;BME280;13522;50.018;20.014;2023-04-09T14:32:12;99479.64;;;13.38;64.39
25664;BME280;13522;50.018;20.014;2023-04-09T14:35:25;99487.81;;;13.27;64.89
25664;BME280;13522;50.018;20.014;2023-04-09T14:38:37;99479.23;;;13.33;66.30
25664;BME280;13522;50.018;20.014;2023-04-09T14:41:49;99479.66;;;13.28;67.62
25664;BME280;13522;50.018;20.014;2023-04-09T14:45:02;99477.14;;;13.08;66.24
25664;BME280;13522;50.018;20.014;2023-04-09T14:48:15;99483.01;;;13.01;68.99
25664;BME280;13522;50.018;20.014;2023-04-09T14:51:27;99477.69;;;12.82;69.24
25664;BME280;13522;50.018;20.014;2023-04-09T14:54:39;99471.39;;;12.83;67.04
25664;BME280;13522;50.018;20.014;2023-04-09T14:57:52;99475.87;;;12.92;68.05
25664;BME280;13522;50.018;20.014;2023-04-09T15:01:04;99473.20;;;12.83;69.93
25664;BME280;13522;50.018;20.014;2023-04-09T15:04:17;99470.13;;;12.87;69.98
25664;BME280;13522;50.018;20.014;2023-04-09T15:07:29;99467.32;;;12.79;71.03
25664;BME280;13522;50.018;20.014;2023-04-09T15:10:41;99480.20;;;12.74;73.46
25664;BME280;13522;50.018;20.014;2023-04-09T15:13:53;99473.62;;;12.59;74.28
25664;BME280;13522;50.018;20.014;2023-04-09T15:17:06;99470.66;;;12.62;75.83
25664;BME280;13522;50.018;20.014;2023-04-09T15:20:18;99473.16;;;12.45;71.11
25664;BME280;13522;50.018;20.014;2023-04-09T15:23:30;99471.61;;;12.42;73.69
25664;BME280;13522;50.018;20.014;2023-04-09T15:26:42;99467.28;;;12.41;72.34
25664;BME280;13522;50.018;20.014;2023-04-09T15:29:54;99474.00;;;12.36;75.14
25664;BME280;13522;50.018;20.014;2023-04-09T15:33:06;99471.28;;;12.26;73.57
25664;BME280;13522;50.018;20.014;2023-04-09T15:42:19;99476.59;;;12.16;77.48
25664;BME280;13522;50.018;20.014;2023-04-09T15:48:33;99478.53;;;12.05;78.21
25664;BME280;13522;50.018;20.014;2023-04-09T15:51:46;99468.19;;;12.11;76.44
25664;BME280;13522;50.018;20.014;2023-04-09T16:29:30;99480.38;;;11.54;81.98
25664;BME280;13522;50.018;20.014;2023-04-09T16:32:43;99482.59;;;11.49;82.43
25664;BME280;13522;50.018;20.014;2023-04-09T16:38:56;99484.22;;;11.40;81.67
25664;BME280;13522;50.018;20.014;2023-04-09T16:48:25;99488.05;;;11.26;83.50
25664;BME280;13522;50.018;20.014;2023-04-09T17:00:37;99503.33;;;11.13;85.35
25664;BME280;13522;50.018;20.014;2023-04-09T17:09:52;99506.20;;;11.01;87.59
25664;BME280;13522;50.018;20.014;2023-04-09T17:16:07;99503.47;;;10.91;88.60
25664;BME280;13522;50.018;20.014;2023-04-09T17:25:28;99517.28;;;10.74;90.48
25664;BME280;13522;50.018;20.014;2023-04-09T17:39:46;99524.45;;;10.63;92.20
25664;BME280;13522;50.018;20.014;2023-04-09T17:46:01;99531.34;;;10.54;92.63
25664;BME280;13522;50.018;20.014;2023-04-09T17:49:14;99536.91;;;10.51;93.70
25664;BME280;13522;50.018;20.014;2023-04-09T17:55:28;99545.73;;;10.40;95.08
25664;BME280;13522;50.018;20.014;2023-04-09T17:58:44;99549.47;;;10.38;94.99
25664;BME280;13522;50.018;20.014;2023-04-09T18:02:00;99554.69;;;10.39;94.40
25664;BME280;13522;50.018;20.014;2023-04-09T18:05:17;99543.80;;;10.42;93.02
25664;BME280;13522;50.018;20.014;2023-04-09T18:08:31;99557.08;;;10.42;93.28
25664;BME280;13522;50.018;20.014;2023-04-09T18:11:44;99558.88;;;10.42;92.94
25664;BME280;13522;50.018;20.014;2023-04-09T18:14:58;99562.52;;;10.41;92.99
25664;BME280;13522;50.018;20.014;2023-04-09T18:18:11;99561.08;;;10.37;93.08
25664;BME280;13522;50.018;20.014;2023-04-09T18:21:23;99569.99;;;10.36;93.30
25664;BME280;13522;50.018;20.014;2023-04-09T18:24:36;99574.12;;;10.29;94.10
25664;BME280;13522;50.018;20.014;2023-04-09T18:27:48;99574.38;;;10.26;94.80
25664;BME280;13522;50.018;20.014;2023-04-09T18:31:01;99579.05;;;10.22;94.64
25664;BME280;13522;50.018;20.014;2023-04-09T18:34:16;99579.05;;;10.22;94.84
25664;BME280;13522;50.018;20.014;2023-04-09T19:07:33;99601.09;;;9.90;96.40
25664;BME280;13522;50.018;20.014;2023-04-09T19:11:33;99596.73;;;9.89;97.64
25664;BME280;13522;50.018;20.014;2023-04-09T19:15:50;99599.64;;;9.86;97.79
25664;BME280;13522;50.018;20.014;2023-04-09T19:19:14;99601.31;;;9.87;97.32
25664;BME280;13522;50.018;20.014;2023-04-09T19:22:26;99596.73;;;9.89;96.18
25664;BME280;13522;50.018;20.014;2023-04-09T19:25:38;99603.75;;;9.90;96.57
25664;BME280;13522;50.018;20.014;2023-04-09T19:28:50;99603.88;;;9.88;95.13
25664;BME280;13522;50.018;20.014;2023-04-09T19:32:03;99605.67;;;9.88;95.71
25664;BME280;13522;50.018;20.014;2023-04-09T19:35:17;99612.66;;;9.89;95.76
25664;BME280;13522;50.018;20.014;2023-04-09T19:38:30;99612.31;;;9.82;96.82
25664;BME280;13522;50.018;20.014;2023-04-09T19:41:42;99611.92;;;9.76;97.58
25664;BME280;13522;50.018;20.014;2023-04-09T19:44:55;99609.13;;;9.66;98.21
25664;BME280;13522;50.018;20.014;2023-04-09T19:48:07;99613.83;;;9.63;99.39
25664;BME280;13522;50.018;20.014;2023-04-09T19:51:20;99609.94;;;9.55;99.53
25664;BME280;13522;50.018;20.014;2023-04-09T19:54:32;99616.16;;;9.43;100.00
25664;BME280;13522;50.018;20.014;2023-04-09T19:57:44;99608.94;;;9.45;100.00
25664;BME280;13522;50.018;20.014;2023-04-09T20:00:57;99615.95;;;9.46;100.00